createdAt,value
2018-03-06T00:00:01.207Z,63.18
2018-03-06T00:02:30.318Z,63.21
2018-03-06T00:04:59.832Z,63.21
2018-03-06T00:07:29.101Z,63.23
2018-03-06T00:09:58.493Z,63.28
2018-03-06T00:12:27.855Z,63.36
2018-03-06T00:14:57.037Z,63.51
2018-03-06T00:17:26.226Z,63.76
2018-03-06T00:19:56.194Z,63.88
2018-03-06T00:22:25.312Z,63.82
2018-03-06T00:24:54.428Z,63.74
2018-03-06T00:27:23.789Z,63.68
2018-03-06T00:29:52.913Z,63.71
2018-03-06T00:32:22.405Z,63.68
2018-03-06T00:34:51.511Z,63.92
2018-03-06T00:37:20.610Z,64.00
2018-03-06T00:39:49.709Z,64.17
2018-03-06T00:42:18.816Z,64.12
2018-03-06T00:44:47.923Z,63.98
2018-03-06T00:47:17.195Z,63.98
2018-03-06T00:49:47.383Z,64.06
2018-03-06T00:52:18.338Z,64.12
2018-03-06T00:54:48.133Z,64.11
2018-03-06T00:57:17.846Z,64.09
2018-03-06T00:59:47.834Z,64.12
2018-03-06T01:02:16.931Z,64.27
2018-03-06T01:04:46.149Z,64.32
2018-03-06T01:07:15.950Z,64.49
2018-03-06T01:09:45.215Z,64.65
2018-03-06T01:12:14.408Z,64.84
2018-03-06T01:14:43.618Z,65.00
2018-03-06T01:17:13.174Z,64.96
2018-03-06T01:19:43.031Z,65.05
2018-03-06T01:22:12.773Z,65.02
2018-03-06T01:24:43.148Z,65.03
2018-03-06T01:27:12.631Z,65.01
2018-03-06T01:29:43.500Z,64.92
2018-03-06T01:32:13.675Z,64.88
2018-03-06T01:34:42.780Z,65.06
2018-03-06T01:37:11.898Z,65.06
2018-03-06T01:39:40.998Z,64.92
2018-03-06T01:42:10.907Z,64.89
2018-03-06T01:44:41.023Z,65.00
2018-03-06T01:47:10.739Z,65.18
2018-03-06T01:49:40.604Z,65.02
2018-03-06T01:52:09.763Z,65.09
2018-03-06T01:54:38.863Z,65.09
2018-03-06T01:57:08.859Z,65.07
2018-03-06T01:59:39.423Z,65.11
2018-03-06T02:02:09.181Z,65.28
2018-03-06T02:04:38.422Z,65.38
2018-03-06T02:07:10.478Z,65.21
2018-03-06T02:09:41.081Z,65.22
2018-03-06T02:12:10.699Z,65.15
2018-03-06T02:14:39.860Z,65.34
2018-03-06T02:17:08.898Z,65.40
2018-03-06T02:19:39.205Z,65.44
2018-03-06T02:22:10.517Z,65.49
2018-03-06T02:24:41.716Z,65.54
2018-03-06T02:27:10.811Z,65.74
2018-03-06T02:29:39.949Z,65.88
2018-03-06T02:32:10.156Z,65.86
2018-03-06T02:34:40.428Z,65.77
2018-03-06T02:37:09.527Z,65.71
2018-03-06T02:39:39.316Z,65.78
2018-03-06T02:42:10.126Z,65.78
2018-03-06T02:44:41.894Z,65.90
2018-03-06T02:47:11.037Z,65.88
2018-03-06T02:49:41.058Z,65.65
2018-03-06T02:52:11.413Z,65.87
2018-03-06T02:54:40.646Z,65.96
2018-03-06T02:57:09.734Z,65.95
2018-03-06T02:59:38.920Z,65.99
2018-03-06T03:02:08.023Z,66.11
2018-03-06T03:04:37.769Z,66.66
2018-03-06T03:07:08.617Z,66.86
2018-03-06T03:09:38.097Z,66.80
2018-03-06T03:12:07.527Z,66.72
2018-03-06T03:14:37.076Z,66.55
2018-03-06T03:17:06.175Z,66.60
2018-03-06T03:19:36.410Z,66.51
2018-03-06T03:22:06.692Z,66.52
2018-03-06T03:24:36.650Z,66.58
2018-03-06T03:27:06.061Z,66.79
2018-03-06T03:29:36.740Z,66.92
2018-03-06T03:32:06.687Z,67.01
2018-03-06T03:34:36.286Z,67.03
2018-03-06T03:37:05.759Z,67.20
2018-03-06T03:39:34.987Z,67.28
2018-03-06T03:42:04.146Z,67.10
2018-03-06T03:44:33.253Z,67.08
2018-03-06T03:47:02.370Z,66.90
2018-03-06T03:49:32.297Z,66.77
2018-03-06T03:52:01.971Z,67.08
2018-03-06T03:54:31.101Z,67.21
2018-03-06T03:57:00.503Z,67.28
2018-03-06T03:59:29.618Z,67.27
2018-03-06T04:01:59.778Z,67.29
2018-03-06T04:04:28.990Z,67.31
2018-03-06T04:06:58.426Z,67.36
2018-03-06T04:09:27.889Z,67.64
2018-03-06T04:11:57.010Z,67.70
2018-03-06T04:14:26.113Z,67.64
2018-03-06T04:16:56.230Z,67.50
2018-03-06T04:19:26.179Z,67.29
2018-03-06T04:21:56.338Z,67.27
2018-03-06T04:24:25.601Z,67.28
2018-03-06T04:26:55.896Z,67.18
2018-03-06T04:29:25.970Z,67.40
2018-03-06T04:31:56.283Z,67.66
2018-03-06T04:34:25.582Z,67.84
2018-03-06T04:36:54.671Z,68.04
2018-03-06T04:39:24.102Z,68.25
2018-03-06T04:41:53.398Z,68.30
2018-03-06T04:44:22.489Z,68.27
2018-03-06T04:46:53.010Z,68.06
2018-03-06T04:49:22.299Z,67.91
2018-03-06T04:51:51.474Z,67.69
2018-03-06T04:54:20.773Z,67.70
2018-03-06T04:56:51.087Z,67.90
2018-03-06T04:59:20.856Z,67.84
2018-03-06T05:01:50.601Z,68.03
2018-03-06T05:04:19.836Z,68.15
2018-03-06T05:06:49.849Z,68.21
2018-03-06T05:09:19.103Z,68.21
2018-03-06T05:11:48.440Z,68.28
2018-03-06T05:14:18.401Z,68.34
2018-03-06T05:16:48.334Z,68.28
2018-03-06T05:19:17.985Z,68.20
2018-03-06T05:21:47.723Z,68.26
2018-03-06T05:24:17.349Z,68.42
2018-03-06T05:26:46.766Z,68.71
2018-03-06T05:29:16.578Z,68.80
2018-03-06T05:31:46.055Z,68.81
2018-03-06T05:34:15.993Z,68.87
2018-03-06T05:36:45.153Z,68.93
2018-03-06T05:39:15.966Z,68.98
2018-03-06T05:41:45.115Z,68.87
2018-03-06T05:44:14.224Z,69.24
2018-03-06T05:46:43.308Z,69.14
2018-03-06T05:49:12.898Z,69.13
2018-03-06T05:51:42.151Z,69.05
2018-03-06T05:54:12.359Z,68.90
2018-03-06T05:56:42.360Z,68.79
2018-03-06T05:59:11.466Z,68.64
2018-03-06T06:01:41.216Z,68.48
2018-03-06T06:04:10.355Z,68.54
2018-03-06T06:06:39.632Z,68.59
2018-03-06T06:09:10.053Z,68.61
2018-03-06T06:11:39.442Z,68.63
2018-03-06T06:14:08.963Z,68.72
2018-03-06T06:16:38.128Z,68.66
2018-03-06T06:19:07.511Z,68.75
2018-03-06T06:21:36.690Z,69.04
2018-03-06T06:24:06.426Z,68.86
2018-03-06T06:26:36.590Z,68.64
2018-03-06T06:29:06.433Z,68.62
2018-03-06T06:31:36.794Z,68.30
2018-03-06T06:34:06.489Z,68.27
2018-03-06T06:36:36.212Z,68.09
2018-03-06T06:39:05.399Z,67.97
2018-03-06T06:41:35.713Z,67.73
2018-03-06T06:44:05.777Z,67.72
2018-03-06T06:46:34.909Z,67.56
2018-03-06T06:49:05.466Z,66.90
2018-03-06T06:51:34.549Z,66.77
2018-03-06T06:54:03.980Z,66.73
2018-03-06T06:56:33.229Z,66.82
2018-03-06T06:59:02.385Z,66.77
2018-03-06T07:01:31.896Z,66.75
2018-03-06T07:04:01.132Z,66.84
2018-03-06T07:06:30.279Z,66.87
2018-03-06T07:09:00.743Z,66.92
2018-03-06T07:11:30.060Z,66.89
2018-03-06T07:13:59.330Z,66.63
2018-03-06T07:16:29.645Z,66.55
2018-03-06T07:18:59.560Z,66.37
2018-03-06T07:21:29.223Z,66.27
2018-03-06T07:23:58.530Z,66.43
2018-03-06T07:26:27.622Z,66.44
2018-03-06T07:28:57.298Z,66.34
2018-03-06T07:31:26.386Z,66.39
2018-03-06T07:33:55.570Z,65.98
2018-03-06T07:36:24.722Z,65.89
2018-03-06T07:38:53.867Z,65.73
2018-03-06T07:41:23.550Z,65.71
2018-03-06T07:43:52.695Z,65.82
2018-03-06T07:46:21.769Z,65.77
2018-03-06T07:48:51.418Z,65.83
2018-03-06T07:51:20.543Z,65.74
2018-03-06T07:53:49.737Z,65.45
2018-03-06T07:56:19.381Z,65.27
2018-03-06T07:58:48.667Z,65.32
2018-03-06T08:01:17.872Z,65.20
2018-03-06T08:03:47.257Z,65.10
2018-03-06T08:06:16.337Z,65.08
2018-03-06T08:08:45.477Z,65.13
2018-03-06T08:11:14.555Z,65.03
2018-03-06T08:13:43.638Z,64.87
2018-03-06T08:16:13.470Z,64.77
2018-03-06T08:18:43.029Z,64.77
2018-03-06T08:21:12.418Z,64.85
2018-03-06T08:23:41.591Z,64.68
2018-03-06T08:26:11.266Z,64.38
2018-03-06T08:28:40.678Z,64.32
2018-03-06T08:31:10.871Z,64.17
2018-03-06T08:33:40.727Z,64.30
2018-03-06T08:36:10.432Z,63.89
2018-03-06T08:38:39.530Z,63.69
2018-03-06T08:41:09.301Z,63.62
2018-03-06T08:43:38.519Z,63.54
2018-03-06T08:46:07.830Z,63.44
2018-03-06T08:48:37.006Z,63.20
2018-03-06T08:51:06.086Z,62.90
2018-03-06T08:53:36.932Z,62.62
2018-03-06T08:56:06.751Z,62.44
2018-03-06T08:58:35.837Z,62.34
2018-03-06T09:01:04.906Z,62.28
2018-03-06T09:03:34.763Z,61.80
2018-03-06T09:06:03.872Z,61.51
2018-03-06T09:08:32.943Z,61.35
2018-03-06T09:11:02.417Z,61.14
2018-03-06T09:13:31.486Z,61.10
2018-03-06T09:16:00.835Z,61.10
2018-03-06T09:18:29.906Z,61.16
2018-03-06T09:20:59.014Z,61.08
2018-03-06T09:23:28.083Z,61.09
2018-03-06T09:25:57.265Z,61.14
2018-03-06T09:28:26.347Z,61.12
2018-03-06T09:30:55.675Z,61.05
2018-03-06T09:33:24.823Z,60.97
2018-03-06T09:35:53.903Z,61.01
2018-03-06T09:38:23.039Z,60.99
2018-03-06T09:40:52.467Z,60.71
2018-03-06T09:43:22.117Z,60.63
2018-03-06T09:45:51.926Z,60.53
2018-03-06T09:48:21.491Z,60.57
2018-03-06T09:50:51.043Z,60.19
2018-03-06T09:53:20.111Z,60.06
2018-03-06T09:55:49.794Z,59.79
2018-03-06T09:58:19.286Z,59.62
2018-03-06T10:00:48.352Z,59.59
2018-03-06T10:03:17.422Z,59.40
2018-03-06T10:05:46.660Z,59.11
2018-03-06T10:08:15.790Z,59.10
2018-03-06T10:10:44.897Z,59.15
2018-03-06T10:13:13.962Z,58.80
2018-03-06T10:15:43.043Z,58.91
2018-03-06T10:18:12.114Z,59.00
2018-03-06T10:20:41.178Z,58.94
2018-03-06T10:23:10.251Z,58.86
2018-03-06T10:25:39.314Z,58.60
2018-03-06T10:28:08.620Z,58.43
2018-03-06T10:30:38.062Z,58.12
2018-03-06T10:33:07.227Z,58.12
2018-03-06T10:35:37.407Z,58.05
2018-03-06T10:38:06.490Z,57.94
2018-03-06T10:40:35.992Z,57.96
2018-03-06T10:43:05.103Z,57.94
2018-03-06T10:45:34.465Z,57.76
2018-03-06T10:48:03.602Z,57.51
2018-03-06T10:50:32.853Z,57.12
2018-03-06T10:53:01.915Z,57.07
2018-03-06T10:55:31.387Z,57.02
2018-03-06T10:58:00.506Z,57.16
2018-03-06T11:00:35.326Z,56.23
2018-03-06T11:03:04.409Z,55.18
2018-03-06T11:05:33.920Z,54.50
2018-03-06T11:08:02.987Z,54.05
2018-03-06T11:10:32.125Z,55.02
2018-03-06T11:13:01.190Z,55.63
2018-03-06T11:15:30.383Z,55.84
2018-03-06T11:17:59.522Z,56.19
2018-03-06T11:20:28.914Z,56.25
2018-03-06T11:22:57.986Z,56.05
2018-03-06T11:25:27.283Z,56.21
2018-03-06T11:27:56.714Z,56.50
2018-03-06T11:30:25.828Z,56.83
2018-03-06T11:32:54.979Z,57.12
2018-03-06T11:35:24.063Z,57.03
2018-03-06T11:37:53.133Z,56.69
2018-03-06T11:40:22.615Z,56.46
2018-03-06T11:42:51.747Z,56.32
2018-03-06T11:45:20.815Z,56.31
2018-03-06T11:47:49.875Z,56.75
2018-03-06T11:50:18.966Z,56.58
2018-03-06T11:52:48.118Z,56.63
2018-03-06T11:55:18.198Z,56.27
2018-03-06T11:57:47.347Z,56.55
2018-03-06T12:00:16.490Z,56.69
2018-03-06T12:02:45.554Z,56.78
2018-03-06T12:05:14.870Z,56.51
2018-03-06T12:07:43.946Z,56.48
2018-03-06T12:10:14.032Z,56.45
2018-03-06T12:12:43.102Z,56.40
2018-03-06T12:15:12.541Z,56.21
2018-03-06T12:17:42.044Z,55.98
2018-03-06T12:20:11.204Z,55.74
2018-03-06T12:22:40.342Z,55.56
2018-03-06T12:25:09.462Z,55.48
2018-03-06T12:27:38.563Z,55.47
2018-03-06T12:30:07.652Z,55.51
2018-03-06T12:32:36.759Z,55.55
2018-03-06T12:35:06.140Z,55.70
2018-03-06T12:37:35.236Z,56.12
2018-03-06T12:40:04.303Z,56.03
2018-03-06T12:42:33.367Z,56.02
2018-03-06T12:45:02.834Z,55.94
2018-03-06T12:47:31.903Z,56.27
2018-03-06T12:50:01.051Z,56.29
2018-03-06T12:52:30.125Z,56.28
2018-03-06T12:54:59.244Z,56.76
2018-03-06T12:57:28.288Z,56.95
2018-03-06T12:59:57.355Z,56.62
2018-03-06T13:02:26.674Z,56.11
2018-03-06T13:04:55.745Z,55.51
2018-03-06T13:07:24.814Z,55.25
2018-03-06T13:09:53.942Z,54.85
2018-03-06T13:12:23.010Z,55.28
2018-03-06T13:14:52.211Z,55.82
2018-03-06T13:17:21.382Z,56.09
2018-03-06T13:19:50.445Z,56.28
2018-03-06T13:22:19.518Z,56.32
2018-03-06T13:24:48.598Z,56.43
2018-03-06T13:27:17.663Z,56.66
2018-03-06T13:29:46.765Z,56.81
2018-03-06T13:32:15.834Z,56.44
2018-03-06T13:34:44.908Z,55.82
2018-03-06T13:37:14.800Z,55.59
2018-03-06T13:39:43.869Z,55.25
2018-03-06T13:42:12.989Z,55.77
2018-03-06T13:44:42.059Z,55.94
2018-03-06T13:47:12.026Z,55.98
2018-03-06T13:49:41.264Z,55.90
2018-03-06T13:52:13.098Z,55.83
2018-03-06T13:54:42.386Z,55.58
2018-03-06T13:57:12.026Z,55.35
2018-03-06T13:59:41.258Z,55.41
2018-03-06T14:02:10.756Z,55.57
2018-03-06T14:04:39.892Z,55.91
2018-03-06T14:07:08.995Z,56.08
2018-03-06T14:09:38.550Z,55.86
2018-03-06T14:12:07.622Z,55.50
2018-03-06T14:14:36.998Z,55.30
2018-03-06T14:17:06.111Z,55.21
2018-03-06T14:19:35.312Z,55.10
2018-03-06T14:22:04.438Z,55.00
2018-03-06T14:24:33.535Z,55.01
2018-03-06T14:27:03.287Z,55.16
2018-03-06T14:29:32.995Z,55.30
2018-03-06T14:32:02.168Z,55.51
2018-03-06T14:34:31.474Z,55.77
2018-03-06T14:37:00.885Z,55.86
2018-03-06T14:39:29.960Z,55.98
2018-03-06T14:41:59.366Z,56.04
2018-03-06T14:44:28.451Z,56.10
2018-03-06T14:46:57.523Z,56.09
2018-03-06T14:49:26.588Z,56.12
2018-03-06T14:51:55.999Z,56.30
2018-03-06T14:54:25.973Z,56.27
2018-03-06T14:56:55.034Z,56.32
2018-03-06T14:59:24.154Z,56.50
2018-03-06T15:01:53.228Z,56.82
2018-03-06T15:04:22.390Z,57.13
2018-03-06T15:06:51.469Z,57.47
2018-03-06T15:09:20.544Z,57.78
2018-03-06T15:11:49.640Z,58.08
2018-03-06T15:14:18.717Z,58.43
2018-03-06T15:16:47.787Z,58.86
2018-03-06T15:19:17.357Z,58.94
2018-03-06T15:21:46.471Z,59.24
2018-03-06T15:24:15.544Z,59.47
2018-03-06T15:26:44.686Z,59.64
2018-03-06T15:29:13.763Z,59.78
2018-03-06T15:31:42.889Z,60.00
2018-03-06T15:34:11.970Z,60.10
2018-03-06T15:36:41.055Z,60.18
2018-03-06T15:39:10.459Z,60.32
2018-03-06T15:41:39.530Z,60.36
2018-03-06T15:44:08.730Z,60.54
2018-03-06T15:46:37.815Z,60.62
2018-03-06T15:49:06.893Z,60.71
2018-03-06T15:51:35.966Z,60.98
2018-03-06T15:54:05.035Z,61.13
2018-03-06T15:56:34.116Z,61.11
2018-03-06T15:59:03.191Z,61.15
2018-03-06T16:01:32.307Z,61.32
2018-03-06T16:04:01.378Z,61.33
2018-03-06T16:06:30.454Z,61.25
2018-03-06T16:09:00.226Z,61.38
2018-03-06T16:11:29.294Z,61.47
2018-03-06T16:13:58.691Z,61.54
2018-03-06T16:16:27.847Z,61.56
2018-03-06T16:18:56.933Z,61.75
2018-03-06T16:21:27.200Z,61.70
2018-03-06T16:23:56.267Z,61.92
2018-03-06T16:26:25.351Z,61.98
2018-03-06T16:28:54.685Z,62.04
2018-03-06T16:31:23.878Z,62.09
2018-03-06T16:33:53.422Z,62.19
2018-03-06T16:36:23.330Z,62.50
2018-03-06T16:38:52.469Z,62.61
2018-03-06T16:41:21.690Z,62.65
2018-03-06T16:43:50.771Z,62.81
2018-03-06T16:46:20.206Z,63.21
2018-03-06T16:48:49.284Z,63.41
2018-03-06T16:51:18.810Z,63.60
2018-03-06T16:53:47.965Z,63.78
2018-03-06T16:56:17.306Z,64.03
2018-03-06T16:58:46.473Z,64.15
2018-03-06T17:01:15.595Z,64.35
2018-03-06T17:03:44.667Z,64.55
2018-03-06T17:06:14.308Z,64.63
2018-03-06T17:08:43.861Z,64.73
2018-03-06T17:11:12.952Z,64.86
2018-03-06T17:13:42.819Z,65.05
2018-03-06T17:16:11.922Z,65.25
2018-03-06T17:18:41.012Z,65.35
2018-03-06T17:21:10.081Z,65.57
2018-03-06T17:23:39.152Z,65.78
2018-03-06T17:26:08.224Z,65.94
2018-03-06T17:28:37.310Z,66.06
2018-03-06T17:31:06.388Z,66.15
2018-03-06T17:33:35.554Z,66.29
2018-03-06T17:36:04.636Z,66.38
2018-03-06T17:38:33.710Z,66.49
2018-03-06T17:41:02.790Z,66.68
2018-03-06T17:43:31.885Z,66.80
2018-03-06T17:46:00.973Z,66.93
2018-03-06T17:48:30.066Z,66.81
2018-03-06T17:50:59.226Z,66.82
2018-03-06T17:53:28.387Z,66.70
2018-03-06T17:55:57.542Z,66.73
2018-03-06T17:58:26.972Z,66.73
2018-03-06T18:00:56.134Z,66.75
2018-03-06T18:03:25.220Z,66.98
2018-03-06T18:05:54.321Z,67.06
2018-03-06T18:08:23.428Z,67.09
2018-03-06T18:10:52.519Z,67.20
2018-03-06T18:13:21.599Z,67.30
2018-03-06T18:15:50.915Z,67.43
2018-03-06T18:18:20.001Z,67.55
2018-03-06T18:20:49.094Z,67.62
2018-03-06T18:23:18.190Z,67.69
2018-03-06T18:25:48.032Z,67.78
2018-03-06T18:28:17.127Z,67.86
2018-03-06T18:30:47.111Z,67.87
2018-03-06T18:33:16.317Z,67.87
2018-03-06T18:35:45.911Z,68.03
2018-03-06T18:38:15.211Z,68.12
2018-03-06T18:40:44.303Z,68.24
2018-03-06T18:43:13.900Z,68.27
2018-03-06T18:45:43.298Z,68.26
2018-03-06T18:48:12.460Z,68.30
2018-03-06T18:50:53.291Z,68.40
2018-03-06T18:53:22.463Z,68.61
2018-03-06T18:55:51.576Z,68.52
2018-03-06T18:58:20.944Z,68.70
2018-03-06T19:01:02.727Z,68.68
2018-03-06T19:03:43.843Z,68.74
2018-03-06T19:06:23.927Z,68.60
2018-03-06T19:08:53.079Z,68.55
2018-03-06T19:11:22.812Z,68.58
2018-03-06T19:13:51.877Z,68.66
2018-03-06T19:16:21.025Z,68.72
2018-03-06T19:18:51.149Z,68.83
2018-03-06T19:21:20.900Z,68.85
2018-03-06T19:23:51.476Z,68.88
2018-03-06T19:26:20.576Z,68.91
2018-03-06T19:28:49.664Z,68.79
2018-03-06T19:31:18.753Z,68.97
2018-03-06T19:33:48.382Z,68.90
2018-03-06T19:36:17.800Z,68.81
2018-03-06T19:38:46.899Z,68.79
2018-03-06T19:41:16.211Z,68.92
2018-03-06T19:43:45.609Z,68.89
2018-03-06T19:46:14.960Z,68.95
2018-03-06T19:48:44.083Z,69.07
2018-03-06T19:51:13.175Z,69.33
2018-03-06T19:53:42.372Z,69.65
2018-03-06T19:56:12.123Z,69.61
2018-03-06T19:58:41.346Z,69.44
2018-03-06T20:01:10.536Z,69.61
2018-03-06T20:03:39.752Z,69.78
2018-03-06T20:06:08.897Z,69.87
2018-03-06T20:08:38.334Z,69.94
2018-03-06T20:11:07.439Z,69.99
2018-03-06T20:13:36.655Z,69.94
2018-03-06T20:16:05.785Z,69.99
2018-03-06T20:21:10.130Z,69.96
2018-03-06T20:23:40.377Z,70.00
2018-03-06T20:26:10.851Z,70.16
2018-03-06T20:28:39.958Z,70.20
2018-03-06T20:31:14.582Z,70.23
2018-03-06T20:33:43.737Z,70.15
2018-03-06T20:36:12.855Z,70.13
2018-03-06T20:38:47.675Z,70.26
2018-03-06T20:41:16.798Z,70.31
2018-03-06T20:43:45.900Z,70.33
2018-03-06T20:46:20.528Z,70.35
2018-03-06T20:48:49.654Z,70.41
2018-03-06T20:51:18.731Z,70.50
2018-03-06T20:53:53.350Z,70.66
2018-03-06T20:56:22.461Z,70.70
2018-03-06T20:58:51.555Z,70.75
2018-03-06T21:01:21.589Z,70.80
2018-03-06T21:03:50.688Z,70.96
2018-03-06T21:06:19.762Z,71.08
2018-03-06T21:08:49.134Z,71.07
2018-03-06T21:11:18.419Z,71.18
2018-03-06T21:13:47.574Z,71.28
2018-03-06T21:16:16.614Z,71.29
2018-03-06T21:18:45.686Z,71.38
2018-03-06T21:21:14.755Z,71.40
2018-03-06T21:23:44.158Z,71.53
2018-03-06T21:26:13.519Z,71.56
2018-03-06T21:28:42.634Z,71.47
2018-03-06T21:31:11.708Z,71.44
2018-03-06T21:33:40.815Z,71.54
2018-03-06T21:36:09.966Z,71.70
2018-03-06T21:38:39.048Z,71.51
2018-03-06T21:41:08.165Z,71.48
2018-03-06T21:43:37.251Z,71.34
2018-03-06T21:46:06.337Z,71.31
2018-03-06T21:48:35.433Z,71.38
2018-03-06T21:51:05.534Z,71.47
2018-03-06T21:53:34.741Z,71.33
2018-03-06T21:56:03.873Z,71.39
2018-03-06T21:58:32.956Z,71.48
2018-03-06T22:01:02.161Z,71.58
2018-03-06T22:03:31.285Z,71.66
2018-03-06T22:06:00.356Z,71.77
2018-03-06T22:08:29.451Z,71.84
2018-03-06T22:10:58.544Z,71.79
2018-03-06T22:13:27.618Z,71.83
2018-03-06T22:15:56.687Z,71.82
2018-03-06T22:18:25.763Z,71.77
2018-03-06T22:20:54.840Z,71.85
2018-03-06T22:23:23.928Z,71.98
2018-03-06T22:25:52.999Z,72.34
2018-03-06T22:28:22.095Z,72.39
2018-03-06T22:30:51.203Z,72.35
2018-03-06T22:33:20.322Z,72.33
2018-03-06T22:35:49.398Z,72.22
2018-03-06T22:38:18.466Z,72.30
2018-03-06T22:40:47.547Z,72.25
2018-03-06T22:43:16.635Z,72.21
2018-03-06T22:45:46.216Z,72.22
2018-03-06T22:48:15.496Z,72.22
2018-03-06T22:50:44.790Z,72.20
2018-03-06T22:53:14.695Z,72.12
2018-03-06T22:55:44.069Z,72.03
2018-03-06T22:58:13.545Z,72.07
2018-03-06T23:00:42.786Z,71.97
2018-03-06T23:03:11.859Z,71.87
2018-03-06T23:05:41.155Z,71.94
2018-03-06T23:08:11.824Z,72.05
2018-03-06T23:10:40.898Z,72.21
2018-03-06T23:13:10.236Z,72.13
2018-03-06T23:15:41.010Z,72.28
2018-03-06T23:18:10.670Z,72.37
2018-03-06T23:20:39.970Z,72.39
2018-03-06T23:23:09.667Z,72.29
2018-03-06T23:25:39.407Z,72.40
2018-03-06T23:28:09.006Z,72.51
2018-03-06T23:30:38.729Z,72.43
2018-03-06T23:33:07.797Z,72.32
2018-03-06T23:35:37.494Z,72.26
2018-03-06T23:38:07.356Z,72.15
2018-03-06T23:40:37.248Z,72.26
2018-03-06T23:43:06.674Z,72.28
2018-03-06T23:45:37.529Z,72.39
2018-03-06T23:48:06.712Z,72.39
2018-03-06T23:50:35.782Z,72.37
2018-03-06T23:53:09.090Z,72.25
2018-03-06T23:55:39.660Z,72.61
2018-03-06T23:58:09.175Z,72.40
